Home > Products > Valid Products > TAF

000
FTUS42 TJSJ 200500
TAFNCM
TAF
TNCM 200540Z 2006/2106 09012KT P6SM FEW023
     FM201300 10015KT P6SM FEW022
     FM202300 09010KT P6SM SCT022=



000
FTUS42 TJSJ 200500
TAFISX
TAF
TISX 200540Z 2006/2106 10013G19KT P6SM VCSH FEW023 SCT028 BKN080
     FM201300 11013G25KT P6SM FEW030 FEW060
     FM202300 07010KT P6SM SCT025=



000
FTUS42 TJSJ 200500
TAFJBQ
TAF
TJBQ 200540Z 2006/2106 11004KT P6SM SCT090
     FM201330 08012G20KT P6SM FEW030 SCT050
     FM201730 08015G25KT P6SM VCSH SCT025 BKN040
     FM202330 11010KT P6SM FEW025=



000
FTUS42 TJSJ 200500
TAFJPS
TAF
TJPS 200540Z 2006/2106 06005KT P6SM FEW040
     FM201330 13012G20KT P6SM FEW030 FEW060
     FM202330 07005KT P6SM FEW025=



000
FTUS42 TJSJ 200500
TAFJMZ
TAF
TJMZ 200540Z 2006/2106 07005KT P6SM FEW025
     FM201630 27010KT P6SM SCT025 BKN040
     FM202330 05008KT P6SM FEW025
      AMD NOT SKED TIL 201600=



000
FTUS42 TJSJ 200500
TAFKPK
TAF
TKPK 200540Z 2006/2106 07012KT P6SM SCT020
     FM201300 07015KT P6SM FEW022
     FM202300 08010KT P6SM SCT022
      AMD NOT SKED TIL 201200=



000
FTUS42 TJSJ 200500
TAFIST
TAF
TIST 200540Z 2006/2106 10008KT P6SM SCT035
     FM201300 12013G25KT P6SM FEW030 FEW060
     FM202300 10010KT P6SM SCT025=



000
FTUS42 TJSJ 200500
TAFJSJ
TAF
TJSJ 200540Z 2006/2106 06005KT P6SM VCSH FEW035 SCT080
     FM201330 09013G20KT P6SM FEW030 SCT050
     FM202330 11005KT P6SM SCT025=



000
FTUS42 TJSJ 192300 RRA
TAFISX
TAF
TISX 192341Z 2000/2024 08010KT P6SM VCSH FEW025 SCT040
     FM201300 11013G25KT P6SM FEW030 FEW060
     FM202300 07010KT P6SM SCT025=



000
FTUS42 TJSJ 192300 RRA
TAFNCM
TAF
TNCM 192341Z 2000/2024 09012KT P6SM SCT020
     FM201300 10015KT P6SM FEW022=



000
FTUS42 TJSJ 192300 RRA
TAFJPS
TAF
TJPS 192341Z 2000/2024 07005KT P6SM SCT060
     FM201330 13012G20KT P6SM FEW030 FEW060
     FM202330 07005KT P6SM FEW025
      AMD NOT SKED TIL 200300=



000
FTUS42 TJSJ 192300 RRA
TAFJMZ
TAF
TJMZ 192341Z 2000/2024 07005KT P6SM FEW025
     FM201630 27010KT P6SM SCT025 BKN040
      AMD NOT SKED TIL 201600=



000
FTUS42 TJSJ 192300 RRA
TAFJSJ
TAF
TJSJ 192341Z 2000/2024 10010KT P6SM VCSH SCT025 SCT040
     FM201330 09013G20KT P6SM FEW030 SCT050
     FM202330 11005KT P6SM SCT025=



000
FTUS42 TJSJ 192300 RRA
TAFJBQ
TAF
TJBQ 192341Z 2000/2024 11010KT P6SM FEW025
     FM201330 08012G20KT P6SM FEW030 SCT050
     FM201730 08015G25KT P6SM VCSH SCT025 BKN040
     FM202330 11010KT P6SM FEW025=



000
FTUS42 TJSJ 192300 RRA
TAFIST
TAF
TIST 192341Z 2000/2024 10010KT P6SM FEW025 SCT040
     FM201300 12013G25KT P6SM FEW030 FEW060
     FM202300 10010KT P6SM SCT025=



000
FTUS42 TJSJ 192300 RRA
TAFKPK
TAF
TKPK 192341Z 2000/2024 07012KT P6SM SCT020
     FM201300 07015KT P6SM FEW022
      AMD NOT SKED 2002/2012=



000
FTUS42 TJSJ 192100 AAA
TAFJBQ
TAF AMD
TJBQ 192106Z 1921/2018 07018G25KT P6SM VCSH SCT025 BKN040 BKN070
      TEMPO 1921/1923 VRB20G27KT 5SM SHRA SCT020 BKN035
     FM192330 09012KT P6SM FEW025 SCT040 SCT080
     FM200300 10009KT P6SM FEW030
     FM201450 07016KT P6SM FEW025 SCT050=



000
FTUS42 TJSJ 191800 CCA
TAFJPS
TAF COR
TJPS 191834Z 1918/2018 12012G20KT P6SM VCSH SCT025 BKN060
     FM192230 08009KT P6SM FEW030 SCT070
     FM200300 07005KT P6SM FEW025 SCT050 PROB30 2006/2010 VRB12KT
      -SHRA SCT025 BKN040
      AMD NOT SKED TIL 200300=



000
FTUS42 TJSJ 191800 CCA
TAFJBQ
TAF COR
TJBQ 191815Z 1918/2018 07018G25KT P6SM VCSH SCT025 BKN040 BKN070
      TEMPO 1918/1921 VRB20G27KT 3SM SHRA BKN022
     FM192230 09012KT P6SM FEW025 SCT040 SCT080
     FM200300 10009KT P6SM FEW030
     FM201450 07016KT P6SM FEW025 SCT050=



000
FTUS42 TJSJ 191800 CCB
TAFJMZ
TAF COR
TJMZ 191807Z 1918/2018 24010KT P6SM VCSH SCT025 BKN040
      TEMPO 1918/1922 VRB12G24KT 2SM +SHRA BKN022
     FM192230 08007KT P6SM FEW025 SCT050 BKN080
     FM200300 06004KT P6SM FEW030
     FM201450 23006KT P6SM SCT030=



000
FTUS42 TJSJ 191800 CCA
TAFJMZ
TAF COR
TJMZ 191802Z 1918/2018 24010KT P6SM VCSH SCT025 BKN040
      TEMPO 1918/1922 VRB12G20KT P6SM BKN025
     FM192230 08007KT P6SM FEW025 SCT050 BKN080
     FM200300 06004KT P6SM FEW030
     FM201450 23006KT P6SM SCT030=



000
FTUS42 TJSJ 191700 RRA
TAFKPK
TAF
TKPK 191740Z 1918/2018 08014KT P6SM VCSH SCT018 BKN040
      TEMPO 1918/1922 VRB15G24KT 5SM SHRA BKN018
     FM192300 08012KT P6SM FEW020 SCT060
     FM200330 07010KT P6SM VCSH SCT018 BKN035
     FM201450 09015KT P6SM FEW022=



000
FTUS42 TJSJ 191700 RRA
TAFIST
TAF
TIST 191740Z 1918/2018 12014G19KT P6SM VCSH SCT025 SCT040 BKN070
      TEMPO 1918/1922 VRB15G27KT 5SM -SHRA BKN022 BKN040
     FM192300 10012KT P6SM FEW025 SCT080
     FM200300 09010KT P6SM VCSH SCT022 SCT040
     FM201450 12017KT P6SM SCT030 SCT050=



000
FTUS42 TJSJ 191700 RRA
TAFJBQ
TAF
TJBQ 191740Z 1918/2018 07018G25KT P6SM VCSH SCT025 BKN040 BKN070
      TEMPO 1918/1921 VRB20G27KT 4SM SHRA BKN025
     FM192230 09012KT P6SM FEW025 SCT040 SCT080
     FM200300 10009KT P6SM FEW030
     FM201450 07016KT P6SM FEW025 SCT050=



000
FTUS42 TJSJ 191700 RRA
TAFJMZ
TAF
TJMZ 191740Z 1918/2018 24008KT P6SM VCSH SCT025 BKN040
      TEMPO 1918/1922 VRB12G20KT P6SM BKN025
     FM192230 08007KT P6SM FEW025 SCT050 BKN080
     FM200300 06004KT P6SM FEW030
     FM201450 23006KT P6SM SCT030
      AMD NOT SKED=



000
FTUS42 TJSJ 191700 RRA
TAFNCM
TAF
TNCM 191740Z 1918/2018 11014KT P6SM VCSH SCT018 BKN040
      TEMPO 1918/1922 VRB15G24KT 5SM SHRA BKN018
     FM192300 10012KT P6SM FEW020 SCT060
     FM200330 09010KT P6SM VCSH SCT018 BKN035
     FM201450 11015KT P6SM FEW022=



000
FTUS42 TJSJ 191700 RRA
TAFISX
TAF
TISX 191740Z 1918/2018 10016G22KT P6SM VCSH SCT025 SCT040 BKN070
      TEMPO 1918/1922 VRB18G28KT 5SM SHRA BKN022 BKN040
     FM192300 09012KT P6SM FEW025 SCT080
     FM200300 08010KT P6SM VCSH SCT022 SCT040
     FM201450 10017KT P6SM SCT030 SCT050=



000
FTUS42 TJSJ 191700 RRA
TAFJSJ
TAF
TJSJ 191740Z 1918/2018 07016G22KT P6SM FEW025 SCT040 BKN060
      TEMPO 1918/1922 VRB22G27KT 4SM SHRA BKN022 BKN035
     FM192300 08011KT P6SM FEW025 SCT040 SCT080
     FM200300 11005KT P6SM VCSH SCT025 SCT040
     FM201430 08015KT P6SM FEW025 SCT070=



000
FTUS42 TJSJ 191700 RRA
TAFJPS
TAF
TJPS 191740Z 1918/2018 12012G19KT P6SM VCSH FEW030 BKN060
     FM192230 08009KT P6SM FEW030 SCT070
     FM200300 07005KT P6SM FEW025 SCT050 PROB30 2006/2010 VRB12KT
      -SHRA SCT025 BKN040
      AMD NOT SKED TIL 200300=



000
FTUS42 TJSJ 191600 AAA
TAFKPK
TAF AMD
TKPK 191616Z 1916/2012 08014KT P6SM VCSH SCT018 BKN040
      TEMPO 1916/1919 VRB14G22KT 5SM -SHRA BKN018
     FM192230 07012KT P6SM SCT020 SCT050=



000
FTUS42 TJSJ 191600 AAA
TAFNCM
TAF AMD
TNCM 191614Z 1916/2012 10013KT P6SM VCSH SCT018 BKN035
      TEMPO 1916/1919 VRB15G24KT 5SM SHRA BKN018
     FM192230 09012KT P6SM FEW020 BKN060=



000
FTUS42 TJSJ 191300 AAA
TAFISX
TAF AMD
TISX 191340Z 1914/2012 10014KT P6SM VCSH SCT020 SCT040 BKN070
      TEMPO 1914/1916 VRB16G25KT 5SM SHRA BKN022 BKN040
     FM191630 10017KT P6SM SCT028 SCT050 SCT080
     FM192300 09012KT P6SM FEW025 SCT050 SCT070=



000
FTUS42 TJSJ 191300 AAA
TAFIST
TAF AMD
TIST 191339Z 1914/2012 12012G18KT P6SM VCSH SCT025 BKN050
      TEMPO 1914/1916 VRB15G27KT 5SM -SHRA BKN022 BKN040
     FM191630 12016KT P6SM SCT028 SCT050 SCT080
     FM192300 09014KT P6SM FEW025 SCT080=



000
FTUS42 TJSJ 191200 CCA
TAFIST
TAF COR
TIST 191255Z 1912/2012 11009KT P6SM VCSH FEW026 SCT035
      TEMPO 1912/1914 VRB12G24KT 5SM SHRA SCT022 BKN035
     FM191430 12016KT P6SM FEW028 SCT070
     FM192300 09014KT P6SM FEW025 SCT050 SCT070=



000
FTUS42 TJSJ 191200 CCA
TAFJBQ
TAF COR
TJBQ 191254Z 1912/2012 10009KT P6SM SCT020
     FM191430 07017KT P6SM SCT025 SCT060
     FM191800 07018G25KT P6SM VCSH SCT025 BKN050
     FM192230 10008KT P6SM FEW022 SCT080=



000
FTUS42 TJSJ 191100
TAFJBQ
TAF
TJBQ 191126Z 1912/2012 00000KT P6SM SCT020
     FM191430 07017KT P6SM SCT025 SCT060
     FM191800 07018G25KT P6SM VCSH SCT025 BKN050
     FM192230 10008KT P6SM FEW022 SCT080=



000
FTUS42 TJSJ 191100
TAFJPS
TAF
TJPS 191126Z 1912/2012 06005KT P6SM VCSH FEW025 SCT050
     FM191430 12012KT P6SM FEW030 SCT070
     FM191800 14014G19KT P6SM SCT030 BKN060
     FM192300 09008KT P6SM FEW030 SCT080=



000
FTUS42 TJSJ 191100
TAFKPK
TAF
TKPK 191126Z 1912/2012 09014KT P6SM VCSH SCT017 SCT040
      TEMPO 1912/1914 VRB12KT 5SM -SHRA BKN017
     FM191430 09015KT P6SM SCT020 SCT050
     FM192230 07012KT P6SM FEW018 SCT050=



000
FTUS42 TJSJ 191100
TAFIST
TAF
TIST 191126Z 1912/2012 11009KT P6SM VCSH FEW026 SCT035
      TEMPO 1912/1914 VRB12KT 5SM SHRA SCT022 BKN035
     FM191430 12016KT P6SM FEW028 SCT070
     FM192300 09014KT P6SM FEW025 SCT050 SCT070=



000
FTUS42 TJSJ 191100
TAFJMZ
TAF
TJMZ 191126Z 1912/2012 17004KT P6SM FEW025 SCT050
     FM191430 25008KT P6SM SCT025 BKN050
     FM191750 30010KT P6SM VCSH SCT025 BKN040
      TEMPO 1918/1921 VRB12G20KT P6SM BKN025
     FM192230 08006KT P6SM FEW025 SCT050 SCT080=



000
FTUS42 TJSJ 191100
TAFJSJ
TAF
TJSJ 191126Z 1912/2012 10005KT P6SM VCSH SCT022 BKN050 BKN080
      TEMPO 1912/1914 VRB12G20KT 5SM SHRA SCT022 BKN035
     FM191430 07014KT P6SM FEW025 SCT060 SCT080
     FM191800 08016G22KT P6SM VCSH SCT025 SCT040
     FM192300 08012KT P6SM FEW025 SCT040 BKN070=



000
FTUS42 TJSJ 191100
TAFNCM
TAF
TNCM 191126Z 1912/2012 10013KT P6SM VCSH SCT018 SCT040
      TEMPO 1912/1914 VRB12KT 5SM SHRA BKN018
     FM191430 11015KT P6SM SCT020 SCT050
     FM192230 09012KT P6SM FEW018 SCT050=



000
FTUS42 TJSJ 191100
TAFISX
TAF
TISX 191126Z 1912/2012 10011G21KT P6SM VCSH SCT022 BKN045
      TEMPO 1912/1914 VRB12KT 5SM -SHRA SCT022 BKN035
     FM191430 10017KT P6SM FEW028 SCT070
     FM192300 09012KT P6SM FEW025 SCT050 SCT070=



000
FTUS42 TJSJ 191100
TAFJMZ
TAF
TJMZ 191120Z 1912/2012 17004KT P6SM FEW025 SCT050
     FM191430 25008KT P6SM SCT025 BKN050
     FM192230 08006KT P6SM FEW025 SCT050 SCT080=



000
FTUS42 TJSJ 191100
TAFJPS
TAF
TJPS 191120Z 1912/2012 06005KT P6SM VCSH FEW030
     FM191430 13012KT P6SM FEW030 SCT070
     FM192230 09008KT P6SM FEW030 BKN080=



000
FTUS42 TJSJ 191100
TAFIST
TAF
TIST 191120Z 1912/2012 11009KT P6SM VCSH FEW026 SCT035
      TEMPO 1912/1914 VRB12KT 5SM SHRA SCT022 BKN035
     FM191430 12016KT P6SM FEW028 SCT070
     FM192300 09014KT P6SM FEW025 SCT050 SCT070=



000
FTUS42 TJSJ 191100
TAFJBQ
TAF
TJBQ 191120Z 1912/2012 00000KT P6SM SCT020
     FM191430 07017KT P6SM SCT025 SCT060
     FM192230 10008KT P6SM FEW022 SCT080=



000
FTUS42 TJSJ 191100
TAFJSJ
TAF
TJSJ 191120Z 1912/2012 11005KT P6SM VCSH FEW024 SCT045 SCT080
      TEMPO 1912/1914 VRB12KT 5SM SHRA SCT022 BKN035
     FM191400 08015KT P6SM SCT025 SCT060
     FM192300 08012KT P6SM FEW025 SCT040 BKN070=



000
FTUS42 TJSJ 191100
TAFISX
TAF
TISX 191120Z 1912/2012 10011G21KT P6SM VCSH SCT022 BKN045
      TEMPO 1912/1914 VRB12KT 5SM -SHRA SCT022 BKN035
     FM191430 10017KT P6SM FEW028 SCT070
     FM192300 09012KT P6SM FEW025 SCT050 SCT070=



000
FTUS42 TJSJ 191100
TAFKPK
TAF
TKPK 191120Z 1912/2012 09014KT P6SM VCSH SCT017
      TEMPO 1912/1914 VRB12KT 5SM -SHRA BKN017
     FM191430 09015KT P6SM SCT020 SCT050
     FM192230 07012KT P6SM FEW018 SCT050=



000
FTUS42 TJSJ 191100
TAFNCM
TAF
TNCM 191120Z 1912/2012 10013KT P6SM VCSH SCT018 SCT040
      TEMPO 1912/1914 VRB12KT 5SM SHRA BKN018
     FM191430 11015KT P6SM SCT020 SCT050
     FM192230 09012KT P6SM FEW018 SCT050=



000
FTUS42 TJSJ 190800 AAB
TAFJSJ
TAF AMD
TJSJ 190835Z 1909/2006 00000KT P6SM VCSH SCT025 SCT050
      TEMPO 1909/1911 VRB12KT 5SM SHRA SCT022 BKN035
     FM191400 08015KT P6SM SCT025 SCT060
     FM192300 08012KT P6SM FEW025 SCT040 BKN070=



000
FTUS42 TJSJ 190800 AAA
TAFISX
TAF AMD
TISX 190827Z 1908/2006 07009KT P6SM VCSH SCT022 SCT040
      TEMPO 1908/1911 VRB12KT 5SM -SHRA BKN025
     FM191430 10017KT P6SM FEW028 SCT070
     FM192300 09012KT P6SM FEW025 SCT050 SCT070=



000
FTUS42 TJSJ 190800 AAA
TAFIST
TAF AMD
TIST 190826Z 1908/2006 10009KT P6SM VCSH SCT022 BKN040
      TEMPO 1908/1911 VRB12KT 5SM -SHRA BKN025
     FM191430 12016KT P6SM FEW028 SCT070
     FM192300 09014KT P6SM FEW025 SCT050 SCT070=



000
FTUS42 TJSJ 190800 AAA
TAFNCM
TAF AMD
TNCM 190812Z 1908/2006 12012G27KT P6SM VCSH SCT018 BKN035
      TEMPO 1908/1910 2SM +SHRA BKN018
     FM191430 11015KT P6SM SCT020 SCT050
     FM192230 09012KT P6SM FEW018 SCT050=



000
FTUS42 TJSJ 190500 AAA
TAFJSJ
TAF AMD
TJSJ 190551Z 1906/2006 00000KT P6SM VCSH SCT025 SCT050
      TEMPO 1906/1909 VRB12KT 5SM SHRA SCT022 BKN035
     FM191400 08015KT P6SM SCT025 SCT060
     FM192300 08012KT P6SM FEW025 SCT040 BKN070=



000
FTUS42 TJSJ 190500 CCA
TAFJSJ
TAF AMD
TJSJ 190547Z 1906/2006 00000KT P6SM VCSH SCT025 SCT050
      TEMPO 1906/1909 VRB12KT -SHRA SCT022 BKN035
     FM191400 08015KT P6SM SCT025 SCT060
     FM192300 08012KT P6SM FEW025 SCT040 BKN070=



000
FTUS42 TJSJ 190500
TAFJBQ
TAF
TJBQ 190524Z 1906/2006 09013KT P6SM SCT020 SCT050
     FM190800 10008KT P6SM VCSH SCT022 SCT050
     FM191430 07017KT P6SM SCT025 SCT060=



000
FTUS42 TJSJ 190500
TAFJMZ
TAF
TJMZ 190524Z 1906/2006 17004KT P6SM FEW025 SCT050
     FM191430 25008KT P6SM SCT025 BKN050
     FM192230 08006KT P6SM FEW025 SCT050 SCT080=



000
FTUS42 TJSJ 190500
TAFJSJ
TAF
TJSJ 190524Z 1906/2006 00000KT P6SM VCSH SCT025 SCT050
     FM191400 08015KT P6SM SCT025 SCT060
     FM192300 08012KT P6SM FEW025 SCT040 BKN070=



000
FTUS42 TJSJ 190500
TAFJPS
TAF
TJPS 190524Z 1906/2006 06005KT P6SM VCSH FEW030
     FM191430 13012KT P6SM FEW030 SCT070
     FM192230 09008KT P6SM FEW030 BKN080=



000
FTUS42 TJSJ 190500
TAFNCM
TAF
TNCM 190524Z 1906/2006 09013KT P6SM VCSH FEW019
     FM191430 11015KT P6SM SCT020 SCT050
     FM192230 09012KT P6SM FEW018 SCT050=



000
FTUS42 TJSJ 190500
TAFKPK
TAF
TKPK 190524Z 1906/2006 08011KT P6SM VCSH SCT018 BKN035
     FM191430 09015KT P6SM SCT020 SCT050
     FM192230 07012KT P6SM FEW018 SCT050=



000
FTUS42 TJSJ 190500
TAFIST
TAF
TIST 190524Z 1906/2006 10009KT P6SM VCSH SKC
     FM191430 12016KT P6SM FEW028 SCT070
     FM192300 09014KT P6SM FEW025 SCT050 SCT070=



000
FTUS42 TJSJ 190500
TAFISX
TAF
TISX 190524Z 1906/2006 07009KT P6SM VCSH FEW022
     FM191430 10017KT P6SM FEW028 SCT070
     FM192300 09012KT P6SM FEW025 SCT050 SCT070=



000
FTUS42 TJSJ 182300
TAFNCM
TAF
TNCM 182322Z 1900/1924 08012KT P6SM VCSH SCT019 SCT040
     FM190230 09011KT P6SM VCSH SCT018 BKN035
     FM191430 11015KT P6SM SCT020 SCT050
     FM192230 09012KT P6SM FEW018 SCT050=



000
FTUS42 TJSJ 182300
TAFJSJ
TAF
TJSJ 182322Z 1900/1924 07011KT P6SM FEW025 SCT060
     FM190300 09009KT P6SM VCSH SCT022 BKN050
     FM191400 08015KT P6SM SCT025 SCT060
     FM192300 08012KT P6SM FEW025 SCT040 BKN070=



000
FTUS42 TJSJ 182300
TAFJMZ
TAF
TJMZ 182322Z 1900/1924 17004KT P6SM FEW025 SCT050
     FM191430 25008KT P6SM SCT025 BKN050
     FM192230 08006KT P6SM FEW025 SCT050 SCT080=



000
FTUS42 TJSJ 182300
TAFJPS
TAF
TJPS 182322Z 1900/1924 11007KT P6SM FEW030 SCT060
     FM190300 07004KT P6SM VCSH FEW025 SCT050
     FM191430 13012KT P6SM FEW030 SCT070
     FM192230 09008KT P6SM FEW030 BKN080=



000
FTUS42 TJSJ 182300
TAFKPK
TAF
TKPK 182322Z 1900/1924 07012KT P6SM FEW021 SCT040
     FM190230 08011KT P6SM VCSH SCT018 BKN035
     FM191430 09015KT P6SM SCT020 SCT050
     FM192230 07012KT P6SM FEW018 SCT050=



000
FTUS42 TJSJ 182300
TAFISX
TAF
TISX 182322Z 1900/1924 08011KT P6SM FEW022 SCT040
     FM190230 07010KT P6SM VCSH SCT022 SCT040
     FM191430 10017KT P6SM FEW028 SCT070
     FM192300 09012KT P6SM FEW025 SCT050 SCT070=



000
FTUS42 TJSJ 182300
TAFJBQ
TAF
TJBQ 182322Z 1900/1924 09013KT P6SM SCT020 SCT050
     FM190800 10008KT P6SM VCSH SCT022 SCT050
     FM191430 07017KT P6SM SCT025 SCT060=



000
FTUS42 TJSJ 182300
TAFIST
TAF
TIST 182322Z 1900/1924 10011KT P6SM FEW020 SCT040
     FM190230 08010KT P6SM VCSH SCT022 SCT040
     FM191430 12016KT P6SM FEW028 SCT070
     FM192300 09014KT P6SM FEW025 SCT050 SCT070=



000
FTUS42 TJSJ 181700
TAFISX
TAF
TISX 181739Z 1818/1918 10016G24KT P6SM VCSH SCT022 SCT040
      TEMPO 1818/1822 09019G27KT 5SM -SHRA BKN025
     FM182300 09012KT P6SM FEW025 SCT050 SCT070
     FM190230 07010KT P6SM VCSH SCT022 SCT040
     FM191430 10017KT P6SM FEW028 SCT070=



000
FTUS42 TJSJ 181700
TAFJPS
TAF
TJPS 181739Z 1818/1918 12015KT P6SM VCSH SCT025 BKN050
     FM182230 09008KT P6SM FEW030 BKN080
     FM190300 07004KT P6SM VCSH FEW025 SCT050
     FM191430 13012KT P6SM FEW030 SCT070
      AMD NOT SKED TIL 190300=



000
FTUS42 TJSJ 181700
TAFIST
TAF
TIST 181739Z 1818/1918 12013G22KT P6SM VCSH SCT020 BKN040
      TEMPO 1818/1822 09018G26KT 5SM -SHRA BKN025
     FM182300 09014KT P6SM FEW025 SCT050 SCT070
     FM190230 08010KT P6SM VCSH SCT022 SCT040
     FM191430 12016KT P6SM FEW028 SCT070=



000
FTUS42 TJSJ 181700
TAFNCM
TAF
TNCM 181739Z 1818/1918 10016KT P6SM VCSH SCT019 SCT030
      TEMPO 1818/1822 VRB18G24KT 5SM -SHRA BKN018
     FM182230 09012KT P6SM FEW018 SCT050
     FM190230 09011KT P6SM VCSH SCT018 BKN035
     FM191430 11015KT P6SM SCT020 SCT050=



000
FTUS42 TJSJ 181700
TAFKPK
TAF
TKPK 181739Z 1818/1918 06016KT P6SM VCSH SCT019 SCT030
      TEMPO 1818/1822 VRB18G24KT 5SM -SHRA BKN018
     FM182230 07012KT P6SM FEW018 SCT050
     FM190230 08011KT P6SM VCSH SCT018 BKN035
     FM191430 09015KT P6SM SCT020 SCT050=



000
FTUS42 TJSJ 181700
TAFJBQ
TAF
TJBQ 181739Z 1818/1918 08018G26KT P6SM VCSH SCT022 SCT050 SCT070
      TEMPO 1818/1822 09020G29KT 4SM SHRA BKN022
     FM182330 09012KT P6SM FEW030 SCT080
     FM190800 10008KT P6SM VCSH SCT022 SCT050
     FM191430 07017KT P6SM SCT025 SCT060=



000
FTUS42 TJSJ 181700
TAFJSJ
TAF
TJSJ 181739Z 1818/1918 07017G25KT P6SM VCSH FEW025 SCT040 SCT070
      TEMPO 1818/1822 08020G27KT 5SM -SHRA BKN025
     FM182300 08012KT P6SM FEW025 SCT040 BKN070
     FM190300 09009KT P6SM VCSH SCT022 BKN050
     FM191400 08015KT P6SM SCT025 SCT060=



000
FTUS42 TJSJ 181700
TAFJMZ
TAF
TJMZ 181739Z 1818/1918 25009KT P6SM VCSH SCT025 BKN040
      TEMPO 1818/1822 VRB15G25KT 3SM +SHRA BKN022 OVC050
     FM182230 08006KT P6SM FEW025 SCT050 SCT080
     FM191430 25008KT P6SM SCT025 BKN050
      AMD NOT SKED=



000
FTUS42 TJSJ 181100 RRA
TAFJSJ
TAF
TJSJ 181139Z 1812/1912 09010KT P6SM VCSH SCT025 SCT040 BKN060
      TEMPO 1812/1814 VRB10G21KT 5SM -SHRA BKN035
     FM181430 07018KT P6SM FEW025 SCT040 SCT070
     FM182300 09011KT P6SM FEW025 SCT040 BKN070=



000
FTUS42 TJSJ 181100 RRA
TAFJMZ
TAF
TJMZ 181139Z 1812/1912 VRB04KT P6SM FEW030 SCT060
     FM181430 26010KT P6SM VCSH SCT025 BKN040
     FM182300 07007KT P6SM FEW025 SCT050 BKN070=



000
FTUS42 TJSJ 181100 RRA
TAFKPK
TAF
TKPK 181139Z 1812/1912 07016KT P6SM VCSH SCT020 BKN030
      TEMPO 1812/1814 VRB13G24KT 5SM -SHRA BKN018
     FM181430 07014KT P6SM SCT022 SCT050
     FM182230 07011KT P6SM FEW018 SCT050=



000
FTUS42 TJSJ 181100 RRA
TAFJBQ
TAF
TJBQ 181139Z 1812/1912 10008KT P6SM VCSH SCT022 SCT060
     FM181430 08020G26KT P6SM SCT030 SCT060
     FM182330 09010KT P6SM FEW030 SCT070=



000
FTUS42 TJSJ 181100 RRA
TAFJPS
TAF
TJPS 181139Z 1812/1912 06004KT P6SM VCSH SCT025 BKN050
     FM181430 12012KT P6SM SCT030 SCT060
     FM182300 09008KT P6SM SCT028 SCT080=



000
FTUS42 TJSJ 181100 RRA
TAFIST
TAF
TIST 181139Z 1812/1912 10013G20KT P6SM VCSH SCT022 SCT040 SCT070
      TEMPO 1812/1814 VRB13G24KT 5SM -SHRA BKN025
     FM181430 10018KT P6SM SCT030 SCT070
     FM182300 09012KT P6SM FEW025 SCT050 SCT070=



000
FTUS42 TJSJ 181100 RRA
TAFISX
TAF
TISX 181139Z 1812/1912 08014G21KT P6SM VCSH SCT022 SCT040
      TEMPO 1812/1814 VRB13G24KT 5SM SHRA BKN025
     FM181430 10018KT P6SM SCT030 SCT070
     FM182330 09012KT P6SM FEW025 SCT050 SCT070=



000
FTUS42 TJSJ 181100 RRA
TAFNCM
TAF
TNCM 181139Z 1812/1912 09014KT P6SM VCSH SCT019 SCT030
      TEMPO 1812/1814 VRB13G24KT 5SM -SHRA BKN018
     FM181430 11016KT P6SM SCT020 SCT050
     FM182230 09010KT P6SM FEW018 SCT050=



000
FTUS42 TJSJ 181100 AAA
TAFKPK
TAF AMD
TKPK 181119Z 1811/1906 08012KT P6SM VCSH SCT018 BKN040
      TEMPO 1811/1814 VRB13G21KT 5SM -SHRA BKN018
     FM181430 07016KT P6SM SCT020 SCT050
     FM182230 07011KT P6SM FEW018 SCT050=



000
FTUS42 TJSJ 181100 AAA
TAFISX
TAF AMD
TISX 181119Z 1811/1906 07009KT P6SM VCSH FEW050 OVC090
      TEMPO 1811/1814 VRB13G21KT 5SM -SHRA BKN025
     FM181430 10018KT P6SM SCT030 SCT070
     FM182330 09012KT P6SM FEW025 SCT050 SCT070=



000
FTUS42 TJSJ 181100 AAA
TAFIST
TAF AMD
TIST 181118Z 1811/1906 10012G18KT P6SM VCSH FEW035 SCT045 SCT060
      TEMPO 1811/1814 VRB13G21KT 5SM -SHRA BKN025
     FM181430 10018KT P6SM SCT030 SCT070
     FM182300 09012KT P6SM FEW025 SCT050 SCT070=



000
FTUS42 TJSJ 180700 AAA
TAFJBQ
TAF AMD
TJBQ 180706Z 1807/1906 11010KT P6SM VCSH SCT010
     FM181430 08022G28KT P6SM FEW025 SCT060
     FM182330 09010KT P6SM FEW030 SCT070=



000
FTUS42 TJSJ 180500
TAFISX
TAF
TISX 180526Z 1806/1906 07009KT P6SM VCSH FEW050 OVC090
      TEMPO 1806/1810 VRB13G21KT 5SM -SHRA BKN025
     FM181430 10018KT P6SM SCT030 SCT070
     FM182330 09012KT P6SM FEW025 SCT050 SCT070=



000
FTUS42 TJSJ 180500
TAFJPS
TAF
TJPS 180526Z 1806/1906 06004KT P6SM VCSH FEW025 SCT050
     FM181330 12012KT P6SM SCT030 SCT070
     FM182300 09008KT P6SM SCT028 SCT080=



000
FTUS42 TJSJ 180500
TAFJMZ
TAF
TJMZ 180526Z 1806/1906 VRB04KT P6SM FEW030 SCT070
     FM181330 26010KT P6SM SCT025 BKN040
     FM182300 07007KT P6SM FEW025 SCT050 BKN070
      AMD NOT SKED TIL 181200=



000
FTUS42 TJSJ 180500
TAFJBQ
TAF
TJBQ 180526Z 1806/1906 11010KT P6SM VCSH SCT010
     FM181430 08018KT P6SM FEW025 SCT060
     FM182330 09010KT P6SM FEW030 SCT070=



000
FTUS42 TJSJ 180500
TAFKPK
TAF
TKPK 180526Z 1806/1906 08012KT P6SM VCSH SCT018 BKN040
      TEMPO 1806/1810 VRB13G21KT 5SM -SHRA BKN018
     FM181430 07016KT P6SM SCT020 SCT050
     FM182230 07011KT P6SM FEW018 SCT050=



000
FTUS42 TJSJ 180500
TAFIST
TAF
TIST 180526Z 1806/1906 10010KT P6SM VCSH FEW027
      TEMPO 1806/1810 VRB13G21KT 5SM -SHRA BKN025
     FM181430 10018KT P6SM SCT030 SCT070
     FM182300 09012KT P6SM FEW025 SCT050 SCT070=



000
FTUS42 TJSJ 180500
TAFNCM
TAF
TNCM 180526Z 1806/1906 09012KT P6SM VCSH SCT019 BKN040
      TEMPO 1806/1810 VRB13G21KT 5SM -SHRA BKN018
     FM181430 11016KT P6SM SCT020 SCT050
     FM182230 09010KT P6SM FEW018 SCT050=



000
FTUS42 TJSJ 180500
TAFJSJ
TAF
TJSJ 180526Z 1806/1906 09006KT P6SM VCSH FEW030 SCT045 BKN070
      TEMPO 1806/1810 VRB10G21KT 5SM -SHRA BKN035
     FM181430 08015KT P6SM FEW025 SCT040 SCT070
     FM182300 08012KT P6SM FEW025 SCT040 BKN070=



000
FTUS42 TJSJ 180200 AAB
TAFJSJ
TAF AMD
TJSJ 180230Z 1803/1824 09006KT P6SM FEW024 SCT040 SCT100
      TEMPO 1803/1804 5SM -SHRA SCT022 BKN040
     FM180400 09010KT P6SM VCSH SCT025 SCT050
      TEMPO 1806/1810 VRB15G22KT 4SM SHRA BKN025
     FM181430 08015KT P6SM FEW025 SCT040 SCT070
     FM182300 08012KT P6SM FEW025 SCT040 BKN070=



000
FTUS42 TJSJ 180000 AAA
TAFJSJ
TAF AMD
TJSJ 180039Z 1801/1824 09006KT P6SM FEW024 SCT040 SCT100
      TEMPO 1801/1802 4SM SHRA SCT020 SCT030 BKN040
     FM180300 09010KT P6SM VCSH SCT025 SCT050
      TEMPO 1806/1810 VRB15G22KT 4SM SHRA BKN025
     FM181430 08015KT P6SM FEW025 SCT040 SCT070
     FM182300 08012KT P6SM FEW025 SCT040 BKN070=



000
FTUS42 TJSJ 172300
TAFISX
TAF
TISX 172334Z 1800/1824 08011KT P6SM SCT024 SCT050
     FM180300 08010KT P6SM VCSH SCT022 BKN050
     FM181430 10018KT P6SM SCT030 SCT070
     FM182330 09012KT P6SM FEW025 SCT050 SCT070=



000
FTUS42 TJSJ 172300
TAFJMZ
TAF
TJMZ 172334Z 1800/1824 08005KT P6SM SCT022 SCT050
     FM180300 VRB04KT P6SM FEW030 SCT070
     FM181330 26010KT P6SM SCT025 BKN040
     FM182300 07007KT P6SM FEW025 SCT050 BKN070
      AMD NOT SKED TIL 181200=



000
FTUS42 TJSJ 172300
TAFJBQ
TAF
TJBQ 172334Z 1800/1824 09013KT P6SM SCT023 SCT050 BKN090
     FM180600 10012KT P6SM VCSH SCT022 BKN050
     FM181430 08018KT P6SM FEW025 SCT060
     FM182330 09010KT P6SM FEW030 SCT070=



000
FTUS42 TJSJ 172300
TAFKPK
TAF
TKPK 172334Z 1800/1824 08010KT P6SM SCT019 SCT045
     FM180200 08012KT P6SM VCSH SCT018 BKN040
      TEMPO 1802/1806 VRB14G24KT 4SM SHRA BKN019
     FM181430 07016KT P6SM SCT020 SCT050
     FM182230 07011KT P6SM FEW018 SCT050=



000
FTUS42 TJSJ 172300
TAFIST
TAF
TIST 172334Z 1800/1824 09010KT P6SM FEW025 SCT070
     FM180300 08010KT P6SM VCSH SCT022 BKN050
     FM181430 10018KT P6SM SCT030 SCT070
     FM182300 09012KT P6SM FEW025 SCT050 SCT070=



000
FTUS42 TJSJ 172300
TAFNCM
TAF
TNCM 172334Z 1800/1824 09012KT P6SM SCT018 SCT040
     FM180200 09012KT P6SM VCSH SCT019 BKN040
      TEMPO 1802/1806 VRB15G24KT 4SM SHRA BKN019
     FM181430 11016KT P6SM SCT020 SCT050
     FM182230 09010KT P6SM FEW018 SCT050=



000
FTUS42 TJSJ 172300
TAFJPS
TAF
TJPS 172334Z 1800/1824 VRB04KT P6SM FEW025 SCT050 SCT070
     FM180300 06004KT P6SM VCSH FEW025 SCT050
     FM181330 12012KT P6SM SCT030 SCT070
     FM182300 09008KT P6SM SCT028 SCT080
      AMD NOT SKED TIL 180300=



000
FTUS42 TJSJ 172300
TAFJSJ
TAF
TJSJ 172334Z 1800/1824 09006KT P6SM FEW024 SCT040 SCT100
     FM180300 09010KT P6SM VCSH SCT025 SCT050
      TEMPO 1806/1810 VRB15G22KT 4SM SHRA BKN025
     FM181430 08015KT P6SM FEW025 SCT040 SCT070
     FM182300 08012KT P6SM FEW025 SCT040 BKN070=



000
FTUS42 TJSJ 171700 RRA
TAFKPK
TAF
TKPK 171739Z 1718/1818 06014KT P6SM VCSH SCT019 BKN040
     FM172230 07011KT P6SM FEW018 SCT050
     FM180200 08012KT P6SM VCSH SCT018 BKN040
      TEMPO 1802/1806 VRB14G24KT 4SM SHRA BKN019
     FM181430 07016KT P6SM SCT020 SCT050=



000
FTUS42 TJSJ 171700 RRA
TAFNCM
TAF
TNCM 171739Z 1718/1818 10014KT P6SM VCSH SCT018 BKN040
     FM172230 09010KT P6SM FEW018 SCT050
     FM180200 09012KT P6SM VCSH SCT019 BKN040
      TEMPO 1802/1806 VRB15G24KT 4SM SHRA BKN019
     FM181430 11016KT P6SM SCT020 SCT050=



000
FTUS42 TJSJ 171700 RRA
TAFJMZ
TAF
TJMZ 171739Z 1718/1818 23008KT P6SM VCSH SCT022 BKN040
      TEMPO 1718/1722 VRB15G24KT 3SM +SHRA BKN022 OVC060
     FM172300 07007KT P6SM FEW025 SCT050 BKN070
     FM180300 VRB04KT P6SM FEW030 SCT070
      AMD NOT SKED 1723/1812=



000
FTUS42 TJSJ 171700 RRA
TAFJBQ
TAF
TJBQ 171739Z 1718/1818 07018G26KT P6SM VCSH SCT025 SCT050 BKN070
     FM172330 09010KT P6SM FEW030 SCT070
     FM180600 10012KT P6SM VCSH SCT022 BKN050
     FM181430 08018KT P6SM FEW025 SCT060=



000
FTUS42 TJSJ 171700 RRA
TAFJPS
TAF
TJPS 171739Z 1718/1818 12014G20KT P6SM VCSH SCT022 SCT050 BKN070
     FM172300 09008KT P6SM SCT028 SCT080
     FM180300 06004KT P6SM VCSH FEW025 SCT050
     FM181330 12012KT P6SM SCT030 SCT070
      AMD NOT SKED TIL 180300=



000
FTUS42 TJSJ 171700 RRA
TAFIST
TAF
TIST 171739Z 1718/1818 12012G20KT P6SM VCSH SCT025 BKN050 BKN070
      TEMPO 1718/1722 08016G26KT 4SM -SHRA BKN025
     FM172300 09012KT P6SM FEW025 SCT050 SCT070
     FM180300 08010KT P6SM VCSH SCT022 BKN050
     FM181430 10018KT P6SM SCT030 SCT070=



000
FTUS42 TJSJ 171700 RRA
TAFJSJ
TAF
TJSJ 171739Z 1718/1818 06015G22KT P6SM VCSH SCT025 BKN040
      TEMPO 1718/1722 07018G26KT 3SM SHRA BKN025
     FM172300 08012KT P6SM FEW025 SCT040 BKN070
     FM180300 09010KT P6SM VCSH SCT022 SCT040
      TEMPO 1806/1810 VRB15G22KT 4SM SHRA BKN025
     FM181430 08015KT P6SM FEW025 SCT040 SCT070=



000
FTUS42 TJSJ 171700 RRA
TAFISX
TAF
TISX 171739Z 1718/1818 10015G20KT P6SM VCSH SCT025 SCT050 BKN070
      TEMPO 1719/1723 08018G26KT 4SM -SHRA BKN025
     FM172330 09012KT P6SM FEW025 SCT050 SCT070
     FM180300 08010KT P6SM VCSH SCT022 BKN050
     FM181430 10018KT P6SM SCT030 SCT070=



000
FTUS42 TJSJ 171600 AAA
TAFJMZ
TAF AMD
TJMZ 171650Z 1717/1812 24008KT P6SM VCSH SCT022 BKN040
      TEMPO 1717/1721 VRB15G24KT 3SM +SHRA BKN022
     FM172230 06006KT P6SM FEW025 SCT050 SCT070=



000
FTUS42 TJSJ 171400 AAA
TAFJSJ
TAF AMD
TJSJ 171456Z 1715/1812 08014G19KT P6SM FEW025 SCT040
     FM171630 06015G22KT P6SM VCSH SCT025 BKN050
      TEMPO 1717/1721 07016G26KT 3SM SHRA BKN025
     FM172200 09009KT P6SM FEW030 SCT070=



000
FTUS42 TJSJ 171400 AAA
TAFISX
TAF AMD
TISX 171450Z 1715/1812 09012KT P6SM VCSH SCT022 BKN050
      TEMPO 1715/1718 07014G24KT 4SM SHRA BKN022
     FM171800 11014G21KT P6SM FEW025 SCT070
     FM172230 09010KT P6SM FEW025 SCT060=



000
FTUS42 TJSJ 171400 AAA
TAFIST
TAF AMD
TIST 171445Z 1715/1812 10011KT P6SM VCSH SCT025 BKN050
      TEMPO 1715/1718 08015G24KT 4SM -SHRA BKN025
     FM171800 12014G20KT P6SM SCT022 SCT070
     FM172300 09010KT P6SM FEW025 SCT070=



000
FTUS42 TJSJ 171100 CCA
TAFKPK
TAF COR
TKPK 171150Z 1712/1812 08010KT P6SM VCSH SCT018 BKN040
      TEMPO 1712/1714 5SM -SHRA BKN018
     FM171430 09015KT P6SM SCT022 SCT050
     FM172330 07012KT P6SM FEW020 SCT040=



000
FTUS42 TJSJ 171100 CCA
TAFNCM
TAF COR
TNCM 171149Z 1712/1812 08010KT P6SM VCSH SCT019 BKN040
      TEMPO 1712/1714 5SM -SHRA BKN019
     FM171430 12016KT P6SM SCT022 SCT050
     FM172200 09012KT P6SM FEW018 SCT050=



000
FTUS42 TJSJ 171100 CCA
TAFIST
TAF COR
TIST 171147Z 1712/1812 09009KT P6SM VCSH SCT025 BKN050
      TEMPO 1712/1714 5SM -SHRA BKN025
     FM171400 12014G21KT P6SM SCT022 SCT060
     FM172300 09009KT P6SM FEW025 SCT070=



000
FTUS42 TJSJ 171100
TAFNCM
TAF
TNCM 171131Z 1712/1812 08010KT P6SM VCSH SCT025
     FM171400 12016KT P6SM FEW020 SCT050
     FM172200 09012KT P6SM FEW018 SCT050=



000
FTUS42 TJSJ 171100
TAFISX
TAF
TISX 171131Z 1712/1812 07008KT P6SM VCSH FEW030 SCT060
     FM171400 10014G21KT P6SM FEW025 SCT050
     FM172230 09010KT P6SM FEW025 SCT060=



000
FTUS42 TJSJ 171100
TAFIST
TAF
TIST 171131Z 1712/1812 09009KT P6SM VCSH SCT030
     FM171400 12014G21KT P6SM SCT030
     FM172300 09009KT P6SM FEW025 SCT070=



000
FTUS42 TJSJ 171100
TAFJBQ
TAF
TJBQ 171131Z 1712/1812 10010KT P6SM VCSH SCT030
     FM171430 06017G25KT P6SM SCT030
     FM172330 09010KT P6SM FEW030 SCT070=



000
FTUS42 TJSJ 171100
TAFJPS
TAF
TJPS 171131Z 1712/1812 05005KT P6SM FEW040
     FM171400 15010G15KT P6SM FEW025 SCT040
     FM172300 09005KT P6SM FEW030 SCT080
      AMD NOT SKED TIL 180300=



000
FTUS42 TJSJ 171100
TAFJMZ
TAF
TJMZ 171131Z 1712/1812 09005KT P6SM FEW030
     FM171330 26010KT P6SM SCT025 BKN040
     FM172230 06006KT P6SM FEW030 SCT070=



000
FTUS42 TJSJ 171100
TAFKPK
TAF
TKPK 171131Z 1712/1812 08010KT P6SM VCSH SCT018 SCT040
     FM171400 09015KT P6SM FEW019 SCT040
     FM172330 07012KT P6SM FEW020 SCT040=



000
FTUS42 TJSJ 171100
TAFJSJ
TAF
TJSJ 171131Z 1712/1812 09008KT P6SM VCSH SCT025
     FM171400 07015G23KT P6SM SCT030
     FM172230 09009KT P6SM FEW030 SCT060=



000
FTUS42 TJSJ 170500 AAA
TAFNCM
TAF AMD
TNCM 170548Z 1706/1806 08010KT P6SM VCSH FEW016 SCT025
      TEMPO 1706/1708 P6SM SHRA BKN016
     FM171400 12015KT P6SM FEW020 SCT050
     FM172230 09008KT P6SM FEW018 SCT060=



000
FTUS42 TJSJ 170500 RRA
TAFJPS
TAF
TJPS 170544Z 1706/1806 05003KT P6SM FEW025
     FM171400 15010KT P6SM SCT030
     FM172300 09005KT P6SM FEW030 SCT080=



000
FTUS42 TJSJ 170500 RRA
TAFNCM
TAF
TNCM 170544Z 1706/1806 08010KT P6SM VCSH FEW016 SCT025
     FM171400 12015KT P6SM FEW020 SCT050
     FM172230 09008KT P6SM FEW018 SCT060=



000
FTUS42 TJSJ 170500 RRA
TAFKPK
TAF
TKPK 170544Z 1706/1806 05010KT P6SM SCT020 SCT040
     FM171400 12015KT P6SM FEW020 SCT050
     FM172330 07008KT P6SM FEW020 SCT050
      AMD NOT SKED TIL 171200=



000
FTUS42 TJSJ 170500 RRA
TAFJSJ
TAF
TJSJ 170544Z 1706/1806 09009KT P6SM VCSH SCT025
     FM171400 07015KT P6SM FEW025 SCT060
     FM172230 09009KT P6SM FEW030 SCT060=



000
FTUS42 TJSJ 170500 RRA
TAFIST
TAF
TIST 170544Z 1706/1806 09007KT P6SM VCSH FEW025
     FM171400 12014KT P6SM FEW025 SCT050
     FM172300 09009KT P6SM FEW025 SCT070=



000
FTUS42 TJSJ 170500 RRA
TAFJMZ
TAF
TJMZ 170544Z 1706/1806 17005KT P6SM SCT030 SCT050
     FM171330 26010KT P6SM SCT025 BKN040
     FM172230 06006KT P6SM FEW030 SCT070
      AMD NOT SKED TIL 171200=



000
FTUS42 TJSJ 170500 RRA
TAFISX
TAF
TISX 170544Z 1706/1806 07006KT P6SM VCSH SCT022 SCT045
     FM171400 10014KT P6SM FEW025 SCT050
     FM172230 09009KT P6SM FEW025 SCT070=



000
FTUS42 TJSJ 170500 RRA
TAFJBQ
TAF
TJBQ 170544Z 1706/1806 10010KT P6SM VCSH FEW025
     FM171430 06015G22KT P6SM SCT030
     FM172330 09008KT P6SM FEW030 SCT070=



    US Dept of Commerce
    National Oceanic and Atmospheric Administration
    National Weather Service
    1325 East West Highway
    Silver Spring, MD 20910
    Page Author: NWS Internet Services Team
Disclaimer
Information Quality
Credits
Glossary
Privacy Policy
Freedom of Information Act (FOIA)
About Us
Career Opportunities